Time;durP1;ratioP1;P1;durP2;ratioP2;P2;SDS_P1;SDS_P2;PMS_P1;PMS_P2;Temp;Humidity;BMP_temperature;BMP_pressure;BME280_temperature;BME280_humidity;BME280_pressure;Samples;Min_cycle;Max_cycle;Signal;HPM_P1;HPM_P2
2022/03/27 00:01:05;;;;;;;17.75;7.40;;;7.30;98.30;;;;;;5092480;27;20111;-65
2022/03/27 00:03:31;;;;;;;16.50;6.72;;;7.40;98.50;;;;;;5096212;27;20027;-65
2022/03/27 00:05:58;;;;;;;16.77;7.13;;;7.30;98.40;;;;;;5100317;27;20036;-65
2022/03/27 00:08:23;;;;;;;15.57;7.38;;;7.30;98.80;;;;;;5103284;27;20103;-66
2022/03/27 00:13:33;;;;;;;12.27;6.30;;;7.20;98.70;;;;;;5096313;28;20053;-67
2022/03/27 00:15:59;;;;;;;12.23;6.20;;;7.20;98.70;;;;;;5102335;27;20424;-65
2022/03/27 00:18:25;;;;;;;14.45;6.75;;;7.20;98.80;;;;;;5107945;27;20047;-65
2022/03/27 00:20:51;;;;;;;13.38;6.40;;;7.20;98.80;;;;;;5108771;27;20048;-65
2022/03/27 00:23:17;;;;;;;15.60;6.57;;;7.20;98.90;;;;;;5102573;27;20096;-65
2022/03/27 00:25:45;;;;;;;10.40;6.25;;;7.20;98.90;;;;;;5084411;27;20035;-67
2022/03/27 00:28:11;;;;;;;13.90;6.93;;;7.20;99.00;;;;;;5110569;27;20127;-65
2022/03/27 00:30:38;;;;;;;13.90;6.60;;;7.20;99.00;;;;;;5105174;27;21527;-66
2022/03/27 00:33:04;;;;;;;12.18;6.47;;;7.20;99.20;;;;;;5125160;27;20049;-65
2022/03/27 00:35:30;;;;;;;14.35;6.75;;;7.20;99.20;;;;;;5091457;27;20092;-66
2022/03/27 00:37:56;;;;;;;14.77;6.50;;;7.20;99.30;;;;;;5107412;27;20051;-65
2022/03/27 00:40:22;;;;;;;13.77;6.10;;;7.20;99.10;;;;;;5098208;27;20047;-65
2022/03/27 00:42:48;;;;;;;12.02;5.90;;;7.30;99.50;;;;;;5102769;27;22404;-64
2022/03/27 00:45:13;;;;;;;12.35;5.57;;;7.10;99.50;;;;;;5100507;27;20158;-65
2022/03/27 00:47:39;;;;;;;11.15;5.85;;;7.20;99.70;;;;;;5099755;27;20389;-65
2022/03/27 00:50:05;;;;;;;11.50;6.10;;;7.20;99.60;;;;;;5088675;27;20039;-65
2022/03/27 00:52:31;;;;;;;9.93;4.95;;;7.20;99.70;;;;;;5113741;27;20036;-65
2022/03/27 00:54:58;;;;;;;15.38;6.28;;;7.30;99.70;;;;;;5102635;27;20454;-65
2022/03/27 00:57:24;;;;;;;12.65;5.95;;;7.20;99.60;;;;;;5103241;27;20044;-65
2022/03/27 00:59:49;;;;;;;13.02;6.03;;;7.20;99.60;;;;;;5094543;27;20062;-65
2022/03/27 01:02:15;;;;;;;13.23;5.97;;;7.20;99.80;;;;;;5096018;27;20051;-65
2022/03/27 01:04:45;;;;;;;12.25;5.65;;;7.10;99.60;;;;;;5104766;27;20036;-66
2022/03/27 01:07:18;;;;;;;11.77;5.68;;;7.10;99.60;;;;;;5098260;27;20051;-65
2022/03/27 01:09:45;;;;;;;11.88;5.85;;;6.90;99.80;;;;;;5103475;27;20114;-65
2022/03/27 01:12:21;;;;;;;11.73;6.15;;;6.90;99.90;;;;;;5104793;27;20383;-65
2022/03/27 01:14:47;;;;;;;12.07;5.47;;;6.80;99.90;;;;;;5123766;27;20126;-64
2022/03/27 01:17:26;;;;;;;10.07;5.70;;;6.60;99.80;;;;;;5098010;27;20051;-65
2022/03/27 01:19:54;;;;;;;9.77;5.40;;;6.60;99.90;;;;;;5108848;27;20498;-65
2022/03/27 01:22:20;;;;;;;12.43;6.55;;;6.50;99.90;;;;;;5104327;27;20062;-65
2022/03/27 01:24:47;;;;;;;11.70;6.07;;;6.40;99.90;;;;;;5108189;28;20039;-65
2022/03/27 01:27:13;;;;;;;10.52;5.93;;;6.20;99.90;;;;;;5099226;27;20440;-65
2022/03/27 01:29:40;;;;;;;13.00;6.25;;;6.20;99.90;;;;;;5102677;27;20033;-66
2022/03/27 01:32:07;;;;;;;12.48;6.05;;;6.10;99.90;;;;;;5126147;27;20098;-65
2022/03/27 01:34:33;;;;;;;15.40;7.25;;;6.00;99.90;;;;;;5099721;27;20035;-64
2022/03/27 01:37:09;;;;;;;13.70;6.20;;;6.00;99.90;;;;;;5075829;27;20032;-65
2022/03/27 01:39:36;;;;;;;12.38;5.97;;;5.80;99.90;;;;;;5098044;27;20039;-65
2022/03/27 01:42:03;;;;;;;14.35;6.13;;;5.80;99.90;;;;;;5096875;28;20087;-65
2022/03/27 01:44:29;;;;;;;13.98;6.35;;;5.70;99.90;;;;;;5103237;27;20440;-64
2022/03/27 01:46:55;;;;;;;16.15;7.10;;;5.60;99.90;;;;;;5095738;27;20063;-64
2022/03/27 01:49:22;;;;;;;11.60;5.95;;;5.60;99.90;;;;;;5096581;27;20058;-65
2022/03/27 01:51:47;;;;;;;11.75;6.10;;;5.60;99.90;;;;;;5103864;27;20074;-64
2022/03/27 01:54:13;;;;;;;12.10;5.82;;;5.60;99.90;;;;;;5097699;27;20483;-65
2022/03/27 01:56:40;;;;;;;12.38;6.30;;;5.60;99.90;;;;;;5098937;27;20035;-65
2022/03/27 01:59:07;;;;;;;11.23;5.50;;;5.50;99.90;;;;;;5102776;27;20064;-64
2022/03/27 02:01:34;;;;;;;11.48;6.18;;;5.60;99.90;;;;;;5077231;27;20409;-65
2022/03/27 02:04:00;;;;;;;15.98;6.65;;;5.70;99.90;;;;;;5079415;28;20767;-64
2022/03/27 02:06:26;;;;;;;11.88;5.72;;;5.70;99.90;;;;;;5101806;27;20039;-64
2022/03/27 02:08:52;;;;;;;11.73;6.22;;;5.70;99.90;;;;;;5108416;27;20023;-65
2022/03/27 02:11:17;;;;;;;13.65;6.40;;;5.70;99.90;;;;;;5099434;27;20077;-64
2022/03/27 02:13:43;;;;;;;15.63;6.05;;;5.70;99.90;;;;;;5105430;27;20545;-66
2022/03/27 02:16:09;;;;;;;10.80;5.95;;;5.80;99.90;;;;;;5101025;27;20035;-64
2022/03/27 02:18:34;;;;;;;12.63;6.50;;;5.80;99.90;;;;;;5101579;27;20525;-64
2022/03/27 02:21:01;;;;;;;15.05;6.63;;;5.70;99.90;;;;;;5103034;27;20039;-64
2022/03/27 02:23:28;;;;;;;12.23;6.70;;;5.70;99.90;;;;;;5097291;28;20044;-65
2022/03/27 02:25:54;;;;;;;14.85;6.57;;;5.70;99.90;;;;;;5090402;27;20063;-68
2022/03/27 02:28:20;;;;;;;13.35;6.90;;;5.70;99.90;;;;;;5097305;27;20027;-64
2022/03/27 02:30:46;;;;;;;17.05;7.47;;;5.70;99.90;;;;;;5095560;27;20112;-64
2022/03/27 02:33:12;;;;;;;13.02;6.57;;;5.60;99.90;;;;;;5122335;27;20050;-65
2022/03/27 02:35:37;;;;;;;12.98;6.68;;;5.60;99.90;;;;;;5099042;28;20035;-66
2022/03/27 02:38:05;;;;;;;17.02;6.78;;;5.60;99.90;;;;;;5097059;27;20125;-64
2022/03/27 02:40:31;;;;;;;15.52;7.22;;;5.50;99.90;;;;;;5100875;28;20050;-66
2022/03/27 02:42:59;;;;;;;12.60;6.38;;;5.50;99.90;;;;;;5108602;27;20031;-64
2022/03/27 02:45:26;;;;;;;14.07;7.60;;;5.40;99.90;;;;;;5095895;27;20066;-65
2022/03/27 02:47:52;;;;;;;14.10;7.55;;;5.30;99.90;;;;;;5085087;27;20133;-66
2022/03/27 02:50:17;;;;;;;18.95;7.63;;;5.30;99.90;;;;;;5094738;27;20166;-64
2022/03/27 02:52:43;;;;;;;13.88;6.93;;;5.30;99.90;;;;;;5096637;27;20042;-64
2022/03/27 02:55:09;;;;;;;13.43;6.85;;;5.30;99.90;;;;;;5093708;27;20035;-64
2022/03/27 02:57:34;;;;;;;18.58;6.63;;;5.30;99.90;;;;;;5084908;27;20656;-66
2022/03/27 03:00:00;;;;;;;14.73;6.95;;;5.40;99.90;;;;;;5103129;27;20087;-65
2022/03/27 03:02:26;;;;;;;12.95;6.63;;;5.40;99.90;;;;;;5117447;27;20044;-63
2022/03/27 03:04:52;;;;;;;12.77;6.22;;;5.40;99.90;;;;;;5097374;27;20039;-65
2022/03/27 03:07:18;;;;;;;17.05;7.03;;;5.50;99.90;;;;;;5105613;27;20206;-65
2022/03/27 03:09:44;;;;;;;13.55;6.05;;;5.40;99.90;;;;;;5103945;28;20273;-65
2022/03/27 03:12:10;;;;;;;15.80;6.68;;;5.40;99.90;;;;;;5095693;27;20077;-65
2022/03/27 03:14:36;;;;;;;14.15;6.10;;;5.50;99.90;;;;;;5105037;27;20091;-65
2022/03/27 03:17:04;;;;;;;12.93;5.85;;;5.40;99.90;;;;;;5095112;27;20035;-66
2022/03/27 03:19:30;;;;;;;15.27;5.97;;;5.40;99.90;;;;;;5097331;27;20043;-64
2022/03/27 03:21:56;;;;;;;13.82;5.68;;;5.40;99.90;;;;;;5101576;27;20351;-66
2022/03/27 03:24:25;;;;;;;13.95;5.47;;;5.30;99.90;;;;;;5100318;28;20040;-65
2022/03/27 03:26:50;;;;;;;16.40;5.63;;;5.40;99.90;;;;;;5116813;27;20035;-64
2022/03/27 03:29:16;;;;;;;15.30;6.18;;;5.40;99.90;;;;;;5099383;27;20065;-64
2022/03/27 03:31:41;;;;;;;17.92;6.05;;;5.40;99.90;;;;;;5097404;27;20050;-64
2022/03/27 03:34:07;;;;;;;16.67;5.15;;;5.40;99.90;;;;;;5101732;28;20096;-65
2022/03/27 03:36:32;;;;;;;16.23;5.45;;;5.40;99.90;;;;;;5121138;27;20035;-65
2022/03/27 03:38:58;;;;;;;16.73;5.93;;;5.40;99.90;;;;;;5107178;27;20040;-64
2022/03/27 03:41:24;;;;;;;14.52;5.95;;;5.40;99.90;;;;;;5100113;28;20047;-67
2022/03/27 03:43:49;;;;;;;14.85;5.90;;;5.40;99.90;;;;;;5096417;28;20045;-64
2022/03/27 03:46:15;;;;;;;19.77;5.95;;;5.40;99.90;;;;;;5098271;28;20084;-66
2022/03/27 03:48:40;;;;;;;14.85;5.90;;;5.40;99.90;;;;;;5102941;28;20490;-64
2022/03/27 03:51:06;;;;;;;13.95;5.68;;;5.40;99.90;;;;;;5097630;28;20051;-66
2022/03/27 03:53:32;;;;;;;18.00;5.90;;;5.40;99.90;;;;;;5089182;28;20347;-64
2022/03/27 03:55:58;;;;;;;15.88;6.28;;;5.50;99.90;;;;;;5096093;28;20111;-64
2022/03/27 03:58:23;;;;;;;18.40;6.97;;;5.60;99.90;;;;;;5099297;28;20036;-64
2022/03/27 04:00:50;;;;;;;16.58;5.70;;;5.60;99.90;;;;;;5113457;28;20051;-64
2022/03/27 04:03:16;;;;;;;24.05;6.80;;;5.70;99.90;;;;;;5097054;28;20035;-65
2022/03/27 04:05:42;;;;;;;21.50;6.53;;;5.80;99.90;;;;;;5100956;28;20348;-64
2022/03/27 04:08:07;;;;;;;24.73;6.20;;;5.80;99.90;;;;;;5097618;28;20063;-65
2022/03/27 04:10:33;;;;;;;22.60;6.30;;;5.90;99.90;;;;;;5101326;28;20039;-64
2022/03/27 04:12:59;;;;;;;22.00;6.38;;;5.90;99.90;;;;;;5091412;28;20042;-64
2022/03/27 04:15:25;;;;;;;19.08;6.38;;;5.90;99.90;;;;;;5117282;28;20179;-65
2022/03/27 04:17:51;;;;;;;19.38;5.55;;;6.00;99.90;;;;;;5101847;28;20038;-64
2022/03/27 04:20:17;;;;;;;20.27;5.75;;;6.10;99.90;;;;;;5088449;28;20475;-65
2022/03/27 04:22:44;;;;;;;24.27;5.93;;;6.20;99.90;;;;;;5101559;28;20062;-64
2022/03/27 04:25:11;;;;;;;15.80;5.10;;;6.20;99.90;;;;;;5091679;28;20226;-64
2022/03/27 04:27:37;;;;;;;19.77;6.35;;;6.30;99.90;;;;;;5109974;28;20032;-64
2022/03/27 04:30:04;;;;;;;26.17;6.50;;;6.30;99.90;;;;;;5103693;28;20088;-65
2022/03/27 04:32:29;;;;;;;21.83;6.10;;;6.40;99.90;;;;;;5101394;28;20050;-65
2022/03/27 04:34:55;;;;;;;24.42;6.57;;;6.40;99.90;;;;;;5095112;28;20031;-64
2022/03/27 04:37:21;;;;;;;23.30;5.07;;;6.40;99.90;;;;;;5102077;27;20047;-64
2022/03/27 04:39:47;;;;;;;25.45;5.85;;;6.50;99.90;;;;;;5105349;28;20152;-65
2022/03/27 04:42:13;;;;;;;19.98;5.03;;;6.50;99.90;;;;;;5101981;27;20477;-65
2022/03/27 04:44:38;;;;;;;19.92;5.72;;;6.40;99.90;;;;;;5105978;27;20076;-66
2022/03/27 04:47:05;;;;;;;28.65;6.45;;;6.50;99.90;;;;;;5105879;27;20043;-65
2022/03/27 04:49:31;;;;;;;27.40;6.15;;;6.50;99.90;;;;;;5102000;27;20172;-65
2022/03/27 04:51:57;;;;;;;26.95;5.68;;;6.60;99.90;;;;;;5095505;27;20126;-64
2022/03/27 04:54:23;;;;;;;27.88;5.68;;;6.50;99.90;;;;;;5095759;28;20048;-64
2022/03/27 04:56:48;;;;;;;26.55;7.00;;;6.50;99.90;;;;;;5098170;28;20055;-65
2022/03/27 04:59:14;;;;;;;28.38;6.85;;;6.50;99.90;;;;;;5099010;27;20148;-64
2022/03/27 05:01:41;;;;;;;29.83;6.38;;;6.60;99.90;;;;;;5096683;27;20071;-64
2022/03/27 05:04:07;;;;;;;33.58;6.70;;;6.60;99.90;;;;;;5117663;27;20043;-65
2022/03/27 05:06:33;;;;;;;23.27;6.18;;;6.60;99.90;;;;;;5122318;27;20042;-64
2022/03/27 05:08:58;;;;;;;32.40;7.10;;;6.60;99.90;;;;;;5077593;27;20027;-65
2022/03/27 05:11:28;;;;;;;24.95;6.32;;;6.70;99.90;;;;;;5110340;27;20070;-66
2022/03/27 05:13:54;;;;;;;32.58;6.25;;;6.60;99.90;;;;;;5113654;27;22020;-64
2022/03/27 05:16:20;;;;;;;33.35;5.57;;;6.70;99.90;;;;;;5104216;27;20048;-65
2022/03/27 05:18:46;;;;;;;26.27;6.80;;;6.70;99.90;;;;;;5103921;27;20084;-65
2022/03/27 05:21:11;;;;;;;22.48;5.32;;;6.70;99.90;;;;;;5107715;27;20043;-64
2022/03/27 05:23:37;;;;;;;29.42;6.20;;;6.60;99.90;;;;;;5091865;27;20144;-64
2022/03/27 05:26:03;;;;;;;31.27;6.88;;;6.60;99.90;;;;;;5100471;27;20667;-64
2022/03/27 05:28:29;;;;;;;27.55;6.43;;;6.50;99.90;;;;;;5099911;27;20485;-65
2022/03/27 05:30:56;;;;;;;29.50;8.40;;;6.60;99.90;;;;;;5094980;27;20257;-66
2022/03/27 05:33:22;;;;;;;30.05;7.63;;;6.60;99.90;;;;;;5108309;27;20139;-64
2022/03/27 05:35:48;;;;;;;33.22;7.55;;;6.60;99.90;;;;;;5119185;27;20070;-65
2022/03/27 05:38:14;;;;;;;24.73;6.15;;;6.60;99.90;;;;;;5094402;27;20082;-64
2022/03/27 05:40:40;;;;;;;25.92;6.75;;;6.60;99.90;;;;;;5105371;27;20040;-65
2022/03/27 05:43:07;;;;;;;33.65;7.05;;;6.70;99.90;;;;;;5112679;27;20043;-65
2022/03/27 05:45:34;;;;;;;30.98;8.10;;;6.70;99.90;;;;;;5089765;27;20078;-65
2022/03/27 05:48:00;;;;;;;34.15;7.60;;;6.70;99.90;;;;;;5108158;27;20122;-65
2022/03/27 05:50:26;;;;;;;28.40;7.65;;;6.70;99.90;;;;;;5104179;27;20196;-64
2022/03/27 05:52:52;;;;;;;29.73;8.40;;;6.70;99.90;;;;;;5116998;27;20073;-64
2022/03/27 05:55:19;;;;;;;32.55;7.75;;;6.70;99.90;;;;;;5098603;27;20062;-65
2022/03/27 05:57:44;;;;;;;29.20;8.38;;;6.80;99.90;;;;;;5101945;27;20035;-65
2022/03/27 06:00:12;;;;;;;31.40;8.50;;;6.80;99.90;;;;;;5100672;27;20428;-66
2022/03/27 06:02:41;;;;;;;28.15;8.00;;;6.80;99.90;;;;;;5095624;27;20032;-65
2022/03/27 06:05:07;;;;;;;22.45;7.65;;;6.80;99.90;;;;;;5106808;27;20042;-65
2022/03/27 06:07:41;;;;;;;35.80;8.68;;;6.80;99.90;;;;;;5097269;28;20032;-65
2022/03/27 06:10:07;;;;;;;29.80;7.88;;;6.80;99.90;;;;;;5093486;28;20138;-64
2022/03/27 06:12:33;;;;;;;30.77;7.72;;;6.80;99.90;;;;;;5120663;27;20031;-64
2022/03/27 06:14:58;;;;;;;30.48;7.82;;;6.80;99.90;;;;;;5087552;28;20035;-65
2022/03/27 06:17:24;;;;;;;26.52;7.40;;;6.70;99.90;;;;;;5102877;27;20087;-65
2022/03/27 06:19:49;;;;;;;30.77;7.35;;;6.70;99.90;;;;;;5108079;27;20478;-64
2022/03/27 06:22:15;;;;;;;24.48;6.75;;;6.70;99.90;;;;;;5105462;27;20039;-66
2022/03/27 06:24:40;;;;;;;30.10;7.68;;;6.70;99.90;;;;;;5094053;28;20092;-65
2022/03/27 06:27:06;;;;;;;25.60;6.72;;;6.80;99.90;;;;;;5099185;27;20043;-64
2022/03/27 06:29:31;;;;;;;27.30;7.38;;;6.80;99.90;;;;;;5099514;27;20165;-66
2022/03/27 06:31:57;;;;;;;30.60;7.30;;;6.80;99.90;;;;;;5118658;27;20141;-66
2022/03/27 06:34:23;;;;;;;27.83;7.03;;;6.90;99.90;;;;;;5107224;27;20047;-65
2022/03/27 06:36:48;;;;;;;25.13;7.18;;;6.90;99.90;;;;;;5126254;27;20387;-66
2022/03/27 06:39:15;;;;;;;29.55;8.18;;;7.00;99.90;;;;;;5105830;27;20058;-65
2022/03/27 06:41:40;;;;;;;27.40;7.70;;;7.10;99.90;;;;;;5099968;27;20526;-66
2022/03/27 06:44:06;;;;;;;30.95;7.65;;;7.30;99.90;;;;;;5104212;27;20031;-66
2022/03/27 06:46:32;;;;;;;27.45;7.47;;;7.40;99.90;;;;;;5123137;27;20035;-65
2022/03/27 06:48:57;;;;;;;25.25;7.32;;;7.70;99.90;;;;;;5101304;27;20066;-66
2022/03/27 06:51:23;;;;;;;29.17;7.28;;;7.70;99.90;;;;;;5104213;27;20494;-65
2022/03/27 06:53:48;;;;;;;27.85;7.65;;;7.80;99.90;;;;;;5119087;27;20031;-66
2022/03/27 06:56:14;;;;;;;24.80;7.53;;;7.80;99.90;;;;;;5082993;27;20050;-65
2022/03/27 06:58:40;;;;;;;20.70;7.45;;;7.90;99.90;;;;;;5106412;27;20454;-64
2022/03/27 07:03:50;;;;;;;26.42;7.40;;;7.90;99.90;;;;;;5097199;27;20035;-67
2022/03/27 07:06:17;;;;;;;24.30;7.20;;;8.00;99.90;;;;;;5082388;27;20031;-66
2022/03/27 07:08:42;;;;;;;25.00;7.53;;;8.00;99.90;;;;;;5102458;27;20039;-65
2022/03/27 07:11:08;;;;;;;23.90;6.93;;;8.00;99.90;;;;;;5106225;27;20039;-66
2022/03/27 07:13:34;;;;;;;25.02;6.63;;;8.10;99.90;;;;;;5109765;28;20055;-66
2022/03/27 07:16:00;;;;;;;21.00;6.75;;;8.20;99.90;;;;;;5102376;27;20118;-67
2022/03/27 07:18:25;;;;;;;21.05;6.53;;;8.20;99.90;;;;;;5096820;27;20073;-65
2022/03/27 07:20:51;;;;;;;25.27;7.57;;;8.20;99.90;;;;;;5099871;27;20062;-65
2022/03/27 07:23:19;;;;;;;35.58;7.43;;;8.30;99.50;;;;;;5100603;27;20036;-65
2022/03/27 07:25:46;;;;;;;22.42;6.50;;;8.40;99.00;;;;;;5112061;27;20385;-65
2022/03/27 07:28:13;;;;;;;26.33;6.78;;;8.50;98.30;;;;;;5121427;27;20027;-67
2022/03/27 07:30:43;;;;;;;27.50;8.02;;;8.60;98.10;;;;;;5099566;28;20042;-66
2022/03/27 07:33:09;;;;;;;27.92;7.10;;;8.60;97.70;;;;;;5106951;27;22573;-65
2022/03/27 07:35:35;;;;;;;31.38;7.05;;;8.70;97.70;;;;;;5103807;28;20031;-66
2022/03/27 07:38:02;;;;;;;30.90;7.03;;;8.70;97.50;;;;;;5121243;27;20042;-66
2022/03/27 07:40:28;;;;;;;25.52;7.45;;;8.80;97.20;;;;;;5118608;27;20035;-66
2022/03/27 07:42:54;;;;;;;23.17;7.07;;;8.90;96.90;;;;;;5092160;28;20027;-65
2022/03/27 07:45:25;;;;;;;35.25;9.50;;;9.00;96.60;;;;;;5108251;28;20039;-66
2022/03/27 07:47:53;;;;;;;36.75;7.65;;;9.10;95.80;;;;;;5104587;28;20114;-65
2022/03/27 07:50:20;;;;;;;32.25;6.40;;;9.20;95.40;;;;;;5108321;28;20057;-65
2022/03/27 07:52:46;;;;;;;40.42;7.90;;;9.20;94.90;;;;;;5101337;28;20066;-66
2022/03/27 07:55:14;;;;;;;41.90;7.80;;;9.20;94.80;;;;;;5101333;28;20043;-66
2022/03/27 07:57:42;;;;;;;32.55;7.55;;;9.20;93.90;;;;;;5106716;27;20035;-64
2022/03/27 08:00:10;;;;;;;47.60;8.32;;;9.20;94.10;;;;;;5090462;28;20038;-66
2022/03/27 08:02:37;;;;;;;29.45;7.72;;;9.20;93.90;;;;;;5094737;27;20153;-65
2022/03/27 08:05:04;;;;;;;39.22;7.68;;;9.20;94.00;;;;;;5126834;27;20040;-66
2022/03/27 08:07:30;;;;;;;42.00;9.18;;;9.40;93.60;;;;;;5089169;28;20096;-67
2022/03/27 08:09:55;;;;;;;37.45;8.65;;;9.50;93.20;;;;;;5097349;28;20528;-66
2022/03/27 08:12:21;;;;;;;36.60;8.38;;;9.50;93.10;;;;;;5106982;27;20039;-66
2022/03/27 08:14:48;;;;;;;37.25;7.53;;;9.50;93.00;;;;;;5116519;27;20039;-66
2022/03/27 08:17:14;;;;;;;30.48;8.18;;;9.70;92.90;;;;;;5109743;27;20039;-67
2022/03/27 08:19:42;;;;;;;37.42;8.30;;;9.80;92.30;;;;;;5113854;27;20134;-66
2022/03/27 08:22:08;;;;;;;32.95;7.93;;;10.10;91.80;;;;;;5106757;28;20112;-68
2022/03/27 08:24:33;;;;;;;34.50;8.43;;;10.20;91.50;;;;;;5084759;27;20118;-66
2022/03/27 08:27:00;;;;;;;38.67;8.18;;;10.10;91.20;;;;;;5112185;27;20397;-66
2022/03/27 08:29:29;;;;;;;33.03;8.30;;;9.90;91.20;;;;;;5109492;27;20497;-66
2022/03/27 08:31:56;;;;;;;35.10;8.88;;;9.80;91.00;;;;;;5108173;27;20035;-67
2022/03/27 08:34:23;;;;;;;33.88;10.60;;;9.90;90.60;;;;;;5127336;27;20108;-67
2022/03/27 08:36:49;;;;;;;34.58;8.30;;;9.90;90.30;;;;;;5111369;27;20042;-67
2022/03/27 08:39:15;;;;;;;26.88;8.00;;;9.90;90.20;;;;;;5101541;27;20039;-67
2022/03/27 08:41:46;;;;;;;35.30;10.60;;;10.00;90.20;;;;;;5106872;27;20064;-66
2022/03/27 08:44:14;;;;;;;36.88;7.75;;;10.20;89.50;;;;;;5105455;27;20045;-65
2022/03/27 08:46:41;;;;;;;31.20;8.82;;;10.60;88.30;;;;;;5088106;27;20157;-67
2022/03/27 08:49:24;;;;;;;29.67;7.65;;;10.80;87.00;;;;;;5095098;27;20031;-67
2022/03/27 08:52:17;;;;;;;40.30;8.45;;;10.80;85.70;;;;;;5109036;27;20027;-67
2022/03/27 08:55:07;;;;;;;29.92;8.50;;;11.10;83.60;;;;;;5093057;27;20032;-67
2022/03/27 08:57:56;;;;;;;44.40;9.93;;;11.50;83.40;;;;;;5095331;27;20500;-67
2022/03/27 09:00:24;;;;;;;28.42;7.70;;;11.60;80.20;;;;;;5108884;27;20043;-67
2022/03/27 09:02:51;;;;;;;31.45;7.03;;;11.70;82.20;;;;;;5126335;27;20038;-67
2022/03/27 09:05:20;;;;;;;32.55;7.68;;;12.10;81.60;;;;;;5106454;27;20027;-68
2022/03/27 09:07:46;;;;;;;31.63;7.47;;;12.10;81.20;;;;;;5115962;27;20035;-66
2022/03/27 09:10:12;;;;;;;35.05;9.32;;;12.00;80.60;;;;;;5091958;27;20066;-67
2022/03/27 09:12:38;;;;;;;27.00;7.45;;;12.10;80.80;;;;;;5112354;27;20083;-67
2022/03/27 09:15:07;;;;;;;31.05;7.90;;;12.00;80.80;;;;;;5106738;27;20592;-67
2022/03/27 09:17:57;;;;;;;32.50;8.70;;;12.00;79.70;;;;;;5109565;27;20035;-67
2022/03/27 09:20:43;;;;;;;26.80;6.75;;;12.10;78.70;;;;;;5112625;27;20146;-67
2022/03/27 09:23:25;;;;;;;32.78;8.52;;;12.10;77.90;;;;;;5091259;28;20066;-67
2022/03/27 09:25:56;;;;;;;37.80;8.00;;;12.20;77.30;;;;;;5101958;27;20047;-67
2022/03/27 09:28:32;;;;;;;33.97;7.07;;;12.00;77.00;;;;;;5103522;27;20035;-67
2022/03/27 09:31:18;;;;;;;28.67;7.50;;;12.20;78.10;;;;;;5095657;28;20043;-68
2022/03/27 09:33:46;;;;;;;24.17;6.82;;;12.30;77.70;;;;;;5099912;27;20050;-67
2022/03/27 09:36:19;;;;;;;32.78;6.50;;;12.30;78.30;;;;;;5085483;27;20063;-67
2022/03/27 09:39:16;;;;;;;29.25;6.57;;;12.40;77.60;;;;;;5097423;27;20043;-67
2022/03/27 09:41:51;;;;;;;29.70;6.53;;;12.50;73.70;;;;;;5104963;27;20111;-66
2022/03/27 09:44:29;;;;;;;26.75;6.57;;;12.70;74.90;;;;;;5107857;27;20127;-67
2022/03/27 09:47:04;;;;;;;30.70;6.68;;;12.70;74.10;;;;;;5112814;27;20035;-67
2022/03/27 09:49:35;;;;;;;26.00;6.85;;;12.60;73.80;;;;;;5108176;27;20046;-67
2022/03/27 09:52:24;;;;;;;25.13;7.15;;;12.40;75.00;;;;;;5092699;27;20217;-67
2022/03/27 09:54:55;;;;;;;27.77;7.32;;;12.70;73.70;;;;;;5111233;27;20153;-66
2022/03/27 09:57:33;;;;;;;30.98;7.78;;;12.60;74.80;;;;;;5114374;27;20547;-67
2022/03/27 10:00:19;;;;;;;35.45;7.22;;;12.50;72.40;;;;;;5113384;27;20146;-67
2022/03/27 10:02:50;;;;;;;27.13;7.13;;;12.40;72.20;;;;;;5104364;27;20035;-67
2022/03/27 10:05:18;;;;;;;23.45;7.43;;;12.40;72.60;;;;;;5111831;27;20050;-68
2022/03/27 10:07:52;;;;;;;25.50;8.68;;;12.50;72.50;;;;;;5106089;27;21573;-67
2022/03/27 10:10:20;;;;;;;24.98;7.57;;;12.80;70.90;;;;;;5105475;27;20050;-68
2022/03/27 10:12:48;;;;;;;33.30;7.50;;;12.90;70.70;;;;;;5111979;27;20072;-67
2022/03/27 10:15:18;;;;;;;26.33;7.65;;;13.00;70.50;;;;;;5120633;27;20048;-68
2022/03/27 10:17:51;;;;;;;24.70;7.03;;;13.00;70.90;;;;;;5111747;27;20045;-68
2022/03/27 10:20:18;;;;;;;19.73;5.90;;;13.10;68.50;;;;;;5124332;27;20079;-67
2022/03/27 10:22:45;;;;;;;25.83;5.82;;;13.30;69.10;;;;;;5095074;27;20043;-67
2022/03/27 10:25:14;;;;;;;27.83;7.05;;;13.30;68.10;;;;;;5107167;27;20525;-67
2022/03/27 10:27:41;;;;;;;17.88;6.25;;;13.40;67.20;;;;;;5105914;27;20042;-67
2022/03/27 10:30:09;;;;;;;21.52;5.97;;;13.60;67.00;;;;;;5093730;27;20043;-67
2022/03/27 10:32:36;;;;;;;22.15;6.35;;;13.50;65.50;;;;;;5107694;27;20042;-68
2022/03/27 10:35:36;;;;;;;22.50;7.43;;;13.70;63.90;;;;;;5077217;28;20475;-67
2022/03/27 10:38:15;;;;;;;25.85;6.25;;;13.40;62.20;;;;;;5109670;27;20067;-68
2022/03/27 10:41:05;;;;;;;22.02;6.45;;;13.40;64.00;;;;;;5094285;27;20103;-68
2022/03/27 10:43:41;;;;;;;25.13;6.00;;;13.40;62.40;;;;;;5086869;28;20036;-68
2022/03/27 10:46:14;;;;;;;24.27;7.15;;;13.40;64.00;;;;;;5093773;27;20046;-68
2022/03/27 10:48:44;;;;;;;25.67;6.85;;;13.50;63.70;;;;;;5097709;27;20039;-67
2022/03/27 10:51:30;;;;;;;20.23;5.78;;;13.50;64.90;;;;;;5104484;27;20041;-68
2022/03/27 10:54:14;;;;;;;21.95;6.22;;;13.90;63.60;;;;;;5099303;27;20046;-68
2022/03/27 10:56:54;;;;;;;20.48;5.68;;;13.60;59.80;;;;;;5108087;27;20035;-68
2022/03/27 10:59:25;;;;;;;21.00;4.93;;;13.60;59.90;;;;;;5101648;27;20523;-66
2022/03/27 11:01:56;;;;;;;16.13;4.20;;;14.00;60.80;;;;;;5101397;27;20687;-67
2022/03/27 11:04:25;;;;;;;20.42;5.13;;;14.20;61.30;;;;;;5118109;27;20046;-68
2022/03/27 11:06:52;;;;;;;22.17;5.95;;;14.00;60.10;;;;;;5108988;27;20409;-67
2022/03/27 11:09:34;;;;;;;24.35;6.63;;;13.70;60.60;;;;;;5100102;28;20039;-68
2022/03/27 11:12:02;;;;;;;22.88;5.60;;;13.80;59.20;;;;;;5078566;28;20047;-68
2022/03/27 11:14:50;;;;;;;22.00;5.47;;;13.70;59.60;;;;;;5094832;28;20051;-67
2022/03/27 11:17:16;;;;;;;24.42;5.90;;;13.60;58.50;;;;;;5077719;28;20141;-68
2022/03/27 11:19:44;;;;;;;22.25;5.38;;;13.60;60.40;;;;;;5100261;27;20134;-68
2022/03/27 11:22:53;;;;;;;18.52;5.35;;;13.70;60.10;;;;;;5092907;28;20554;-68
2022/03/27 11:25:27;;;;;;;20.35;5.50;;;13.90;58.20;;;;;;5107485;27;20051;-68
2022/03/27 11:28:14;;;;;;;21.30;5.18;;;13.90;58.50;;;;;;5092804;27;20035;-68
2022/03/27 11:30:59;;;;;;;20.65;4.90;;;13.90;55.20;;;;;;5092088;27;20035;-68
2022/03/27 11:33:29;;;;;;;17.10;4.93;;;13.90;55.60;;;;;;5100491;27;20035;-68
2022/03/27 11:36:09;;;;;;;20.58;5.28;;;13.80;58.20;;;;;;5102588;28;20050;-69
2022/03/27 11:38:51;;;;;;;20.85;5.25;;;14.00;55.80;;;;;;5095736;28;20134;-67
2022/03/27 11:41:48;;;;;;;14.52;4.93;;;14.40;56.60;;;;;;5096489;28;20047;-67
2022/03/27 11:44:16;;;;;;;21.45;5.45;;;14.70;54.90;;;;;;5105897;28;20038;-68
2022/03/27 11:46:45;;;;;;;18.25;5.15;;;14.80;55.70;;;;;;5094380;28;20449;-67
2022/03/27 11:49:11;;;;;;;13.23;4.20;;;14.90;55.50;;;;;;5091999;28;20119;-67
2022/03/27 11:51:37;;;;;;;19.33;5.03;;;15.00;54.90;;;;;;5106763;28;20035;-68
2022/03/27 11:54:15;;;;;;;17.80;5.00;;;14.90;55.20;;;;;;5102477;28;20375;-68
2022/03/27 11:56:59;;;;;;;17.83;5.07;;;14.80;55.10;;;;;;5103539;28;20031;-68
2022/03/27 11:59:28;;;;;;;15.55;4.32;;;14.90;54.00;;;;;;5110389;28;20057;-68
2022/03/27 12:01:55;;;;;;;17.80;3.92;;;14.90;55.40;;;;;;5110217;28;20106;-68
2022/03/27 12:04:21;;;;;;;20.67;4.43;;;15.00;53.50;;;;;;5090260;28;20061;-68
2022/03/27 12:06:54;;;;;;;15.68;4.30;;;15.20;53.80;;;;;;5089870;28;20367;-68
2022/03/27 12:09:31;;;;;;;19.13;4.93;;;15.20;52.50;;;;;;5108605;28;20475;-68
2022/03/27 12:12:10;;;;;;;16.77;4.90;;;15.40;52.00;;;;;;5090036;28;20042;-68
2022/03/27 12:15:00;;;;;;;15.30;4.32;;;15.30;52.20;;;;;;5108403;28;20046;-67
2022/03/27 12:17:31;;;;;;;19.05;4.85;;;15.20;49.80;;;;;;5101592;27;20058;-69
2022/03/27 12:20:10;;;;;;;19.70;4.45;;;15.20;53.60;;;;;;5098178;28;20062;-67
2022/03/27 12:22:49;;;;;;;18.08;4.90;;;15.40;52.80;;;;;;5102247;28;20159;-68
2022/03/27 12:25:15;;;;;;;19.38;4.70;;;15.20;52.50;;;;;;5122958;27;20376;-67
2022/03/27 12:30:36;;;;;;;15.18;4.28;;;15.70;52.40;;;;;;5101674;28;20135;-68
2022/03/27 12:33:04;;;;;;;15.15;4.40;;;15.90;50.40;;;;;;5102275;27;20031;-67
2022/03/27 12:35:30;;;;;;;21.17;4.93;;;16.00;51.50;;;;;;5089383;28;20070;-67
2022/03/27 12:37:56;;;;;;;17.35;4.25;;;16.10;51.10;;;;;;5085984;28;20044;-68
2022/03/27 12:40:24;;;;;;;14.38;4.70;;;16.20;51.10;;;;;;5092630;28;20059;-68
2022/03/27 12:42:52;;;;;;;18.42;4.25;;;16.20;50.90;;;;;;5093175;28;20479;-69
2022/03/27 12:45:33;;;;;;;16.38;4.00;;;16.40;51.00;;;;;;5094394;28;20114;-68
2022/03/27 12:48:03;;;;;;;17.65;4.25;;;16.40;47.20;;;;;;5098170;28;20061;-70
2022/03/27 12:50:33;;;;;;;16.70;4.25;;;16.20;49.60;;;;;;5097958;28;20040;-68
2022/03/27 12:53:03;;;;;;;18.67;4.55;;;16.60;49.50;;;;;;5103592;28;20454;-69
2022/03/27 12:56:07;;;;;;;15.70;4.15;;;16.90;48.70;;;;;;5098482;27;20047;-69
2022/03/27 12:58:37;;;;;;;16.02;4.70;;;17.10;48.00;;;;;;5103064;27;20092;-69
2022/03/27 13:01:16;;;;;;;;;;;18.00;48.00;;;;;;5128078;27;20043;-70